sensor_id;sensor_type;location;lat;lon;timestamp;temperature;humidity
5023;DHT22;2530;47.990;7.866;2022-08-21T00:00:14;16.10;99.90
5023;DHT22;2530;47.990;7.866;2022-08-21T00:02:54;16.00;99.90
5023;DHT22;2530;47.990;7.866;2022-08-21T00:05:20;16.00;99.90
5023;DHT22;2530;47.990;7.866;2022-08-21T00:07:46;16.10;99.90
5023;DHT22;2530;47.990;7.866;2022-08-21T00:10:13;16.10;99.90
5023;DHT22;2530;47.990;7.866;2022-08-21T00:12:39;16.10;99.90
5023;DHT22;2530;47.990;7.866;2022-08-21T00:15:07;16.00;99.90
5023;DHT22;2530;47.990;7.866;2022-08-21T00:17:34;16.00;99.90
5023;DHT22;2530;47.990;7.866;2022-08-21T00:19:59;16.00;99.90
5023;DHT22;2530;47.990;7.866;2022-08-21T00:22:25;15.90;99.90
5023;DHT22;2530;47.990;7.866;2022-08-21T00:24:50;15.90;99.90
5023;DHT22;2530;47.990;7.866;2022-08-21T00:27:16;15.90;99.90
5023;DHT22;2530;47.990;7.866;2022-08-21T00:29:42;15.90;99.90
5023;DHT22;2530;47.990;7.866;2022-08-21T00:32:07;15.80;99.90
5023;DHT22;2530;47.990;7.866;2022-08-21T00:34:33;15.80;99.90
5023;DHT22;2530;47.990;7.866;2022-08-21T00:36:58;15.70;99.90
5023;DHT22;2530;47.990;7.866;2022-08-21T00:39:24;15.70;99.90
5023;DHT22;2530;47.990;7.866;2022-08-21T00:41:49;15.70;99.90
5023;DHT22;2530;47.990;7.866;2022-08-21T00:44:15;15.70;99.90
5023;DHT22;2530;47.990;7.866;2022-08-21T00:46:42;15.70;99.90
5023;DHT22;2530;47.990;7.866;2022-08-21T00:49:09;15.60;99.90
5023;DHT22;2530;47.990;7.866;2022-08-21T00:51:42;15.60;99.90
5023;DHT22;2530;47.990;7.866;2022-08-21T00:54:10;15.60;99.90
5023;DHT22;2530;47.990;7.866;2022-08-21T00:56:36;15.60;99.90
5023;DHT22;2530;47.990;7.866;2022-08-21T00:59:02;15.50;99.90
5023;DHT22;2530;47.990;7.866;2022-08-21T01:01:29;15.50;99.90
5023;DHT22;2530;47.990;7.866;2022-08-21T01:03:54;15.40;99.90
5023;DHT22;2530;47.990;7.866;2022-08-21T01:06:20;15.40;99.90
5023;DHT22;2530;47.990;7.866;2022-08-21T01:08:46;15.40;99.90
5023;DHT22;2530;47.990;7.866;2022-08-21T01:11:12;15.40;99.90
5023;DHT22;2530;47.990;7.866;2022-08-21T01:13:39;15.30;99.90
5023;DHT22;2530;47.990;7.866;2022-08-21T01:16:10;15.30;99.90
5023;DHT22;2530;47.990;7.866;2022-08-21T01:18:36;15.30;99.90
5023;DHT22;2530;47.990;7.866;2022-08-21T01:21:05;15.30;99.90
5023;DHT22;2530;47.990;7.866;2022-08-21T01:23:32;15.40;99.90
5023;DHT22;2530;47.990;7.866;2022-08-21T01:25:57;15.40;99.90
5023;DHT22;2530;47.990;7.866;2022-08-21T01:28:24;15.30;99.90
5023;DHT22;2530;47.990;7.866;2022-08-21T01:30:51;15.30;99.90
5023;DHT22;2530;47.990;7.866;2022-08-21T01:33:22;15.30;99.90
5023;DHT22;2530;47.990;7.866;2022-08-21T01:35:49;15.30;99.90
5023;DHT22;2530;47.990;7.866;2022-08-21T01:38:15;15.30;99.90
5023;DHT22;2530;47.990;7.866;2022-08-21T01:40:41;15.20;99.90
5023;DHT22;2530;47.990;7.866;2022-08-21T01:43:06;15.30;99.90
5023;DHT22;2530;47.990;7.866;2022-08-21T01:45:32;15.30;99.90
5023;DHT22;2530;47.990;7.866;2022-08-21T01:47:57;15.30;99.90
5023;DHT22;2530;47.990;7.866;2022-08-21T01:50:23;15.30;99.90
5023;DHT22;2530;47.990;7.866;2022-08-21T01:52:49;15.30;99.90
5023;DHT22;2530;47.990;7.866;2022-08-21T01:55:16;15.30;99.90
5023;DHT22;2530;47.990;7.866;2022-08-21T01:57:42;15.20;99.90
5023;DHT22;2530;47.990;7.866;2022-08-21T02:00:11;15.20;99.90
5023;DHT22;2530;47.990;7.866;2022-08-21T02:02:38;15.20;99.90
5023;DHT22;2530;47.990;7.866;2022-08-21T02:05:05;15.20;99.90
5023;DHT22;2530;47.990;7.866;2022-08-21T02:07:48;15.20;99.90
5023;DHT22;2530;47.990;7.866;2022-08-21T02:10:19;15.20;99.90
5023;DHT22;2530;47.990;7.866;2022-08-21T02:12:45;15.20;99.90
5023;DHT22;2530;47.990;7.866;2022-08-21T02:15:11;15.10;99.90
5023;DHT22;2530;47.990;7.866;2022-08-21T02:17:42;15.20;99.90
5023;DHT22;2530;47.990;7.866;2022-08-21T02:20:08;15.10;99.90
5023;DHT22;2530;47.990;7.866;2022-08-21T02:22:34;15.10;99.90
5023;DHT22;2530;47.990;7.866;2022-08-21T02:24:59;15.10;99.90
5023;DHT22;2530;47.990;7.866;2022-08-21T02:27:25;15.00;99.90
5023;DHT22;2530;47.990;7.866;2022-08-21T02:29:51;15.10;99.90
5023;DHT22;2530;47.990;7.866;2022-08-21T02:32:17;15.10;99.90
5023;DHT22;2530;47.990;7.866;2022-08-21T02:34:42;15.10;99.90
5023;DHT22;2530;47.990;7.866;2022-08-21T02:37:08;15.10;99.90
5023;DHT22;2530;47.990;7.866;2022-08-21T02:39:33;15.00;99.90
5023;DHT22;2530;47.990;7.866;2022-08-21T02:41:59;15.00;99.90
5023;DHT22;2530;47.990;7.866;2022-08-21T02:44:25;14.90;99.90
5023;DHT22;2530;47.990;7.866;2022-08-21T02:46:51;15.00;99.90
5023;DHT22;2530;47.990;7.866;2022-08-21T02:49:16;15.00;99.90
5023;DHT22;2530;47.990;7.866;2022-08-21T02:51:42;15.10;99.90
5023;DHT22;2530;47.990;7.866;2022-08-21T02:54:08;14.90;99.90
5023;DHT22;2530;47.990;7.866;2022-08-21T02:56:33;14.90;99.90
5023;DHT22;2530;47.990;7.866;2022-08-21T02:58:59;14.80;99.90
5023;DHT22;2530;47.990;7.866;2022-08-21T03:01:24;14.90;99.90
5023;DHT22;2530;47.990;7.866;2022-08-21T03:03:51;14.80;99.90
5023;DHT22;2530;47.990;7.866;2022-08-21T03:06:19;14.80;99.90
5023;DHT22;2530;47.990;7.866;2022-08-21T03:08:45;14.80;99.90
5023;DHT22;2530;47.990;7.866;2022-08-21T03:11:11;14.80;99.90
5023;DHT22;2530;47.990;7.866;2022-08-21T03:13:37;14.70;99.90
5023;DHT22;2530;47.990;7.866;2022-08-21T03:16:04;14.60;99.90
5023;DHT22;2530;47.990;7.866;2022-08-21T03:18:29;14.60;99.90
5023;DHT22;2530;47.990;7.866;2022-08-21T03:20:55;14.70;99.90
5023;DHT22;2530;47.990;7.866;2022-08-21T03:23:21;14.70;99.90
5023;DHT22;2530;47.990;7.866;2022-08-21T03:25:47;14.70;99.90
5023;DHT22;2530;47.990;7.866;2022-08-21T03:28:18;14.70;99.90
5023;DHT22;2530;47.990;7.866;2022-08-21T03:30:47;14.70;99.90
5023;DHT22;2530;47.990;7.866;2022-08-21T03:33:13;14.70;99.90
5023;DHT22;2530;47.990;7.866;2022-08-21T03:35:39;14.50;99.90
5023;DHT22;2530;47.990;7.866;2022-08-21T03:38:05;14.50;99.90
5023;DHT22;2530;47.990;7.866;2022-08-21T03:40:31;14.40;99.90
5023;DHT22;2530;47.990;7.866;2022-08-21T03:42:57;14.60;99.90
5023;DHT22;2530;47.990;7.866;2022-08-21T03:45:23;14.60;99.90
5023;DHT22;2530;47.990;7.866;2022-08-21T03:48:00;14.60;99.90
5023;DHT22;2530;47.990;7.866;2022-08-21T03:50:30;14.60;99.90
5023;DHT22;2530;47.990;7.866;2022-08-21T03:52:56;14.60;99.90
5023;DHT22;2530;47.990;7.866;2022-08-21T03:55:23;14.50;99.90
5023;DHT22;2530;47.990;7.866;2022-08-21T03:57:48;14.40;99.90
5023;DHT22;2530;47.990;7.866;2022-08-21T04:00:15;14.60;99.90
5023;DHT22;2530;47.990;7.866;2022-08-21T04:02:41;14.60;99.90
5023;DHT22;2530;47.990;7.866;2022-08-21T04:05:09;14.60;99.90
5023;DHT22;2530;47.990;7.866;2022-08-21T04:07:35;14.50;99.90
5023;DHT22;2530;47.990;7.866;2022-08-21T04:10:01;14.60;99.90
5023;DHT22;2530;47.990;7.866;2022-08-21T04:12:27;14.50;99.90
5023;DHT22;2530;47.990;7.866;2022-08-21T04:14:53;14.50;99.90
5023;DHT22;2530;47.990;7.866;2022-08-21T04:17:18;14.60;99.90
5023;DHT22;2530;47.990;7.866;2022-08-21T04:19:44;14.50;99.90
5023;DHT22;2530;47.990;7.866;2022-08-21T04:22:10;14.50;99.90
5023;DHT22;2530;47.990;7.866;2022-08-21T04:24:35;14.50;99.90
5023;DHT22;2530;47.990;7.866;2022-08-21T04:27:01;14.60;99.90
5023;DHT22;2530;47.990;7.866;2022-08-21T04:29:27;14.40;99.90
5023;DHT22;2530;47.990;7.866;2022-08-21T04:31:52;14.30;99.90
5023;DHT22;2530;47.990;7.866;2022-08-21T04:34:18;14.40;99.90
5023;DHT22;2530;47.990;7.866;2022-08-21T04:36:44;14.40;99.90
5023;DHT22;2530;47.990;7.866;2022-08-21T04:39:09;14.30;99.90
5023;DHT22;2530;47.990;7.866;2022-08-21T04:41:35;14.30;99.90
5023;DHT22;2530;47.990;7.866;2022-08-21T04:44:02;14.50;99.90
5023;DHT22;2530;47.990;7.866;2022-08-21T04:46:28;14.40;99.90
5023;DHT22;2530;47.990;7.866;2022-08-21T04:48:53;14.50;99.90
5023;DHT22;2530;47.990;7.866;2022-08-21T04:51:27;14.50;99.90
5023;DHT22;2530;47.990;7.866;2022-08-21T04:54:14;14.50;99.90
5023;DHT22;2530;47.990;7.866;2022-08-21T04:56:49;14.50;99.90
5023;DHT22;2530;47.990;7.866;2022-08-21T04:59:30;14.50;99.90
5023;DHT22;2530;47.990;7.866;2022-08-21T05:01:57;14.50;99.90
5023;DHT22;2530;47.990;7.866;2022-08-21T05:04:26;14.60;99.90
5023;DHT22;2530;47.990;7.866;2022-08-21T05:06:54;14.60;99.90
5023;DHT22;2530;47.990;7.866;2022-08-21T05:09:21;14.70;99.90
5023;DHT22;2530;47.990;7.866;2022-08-21T05:11:48;14.80;99.90
5023;DHT22;2530;47.990;7.866;2022-08-21T05:14:14;14.90;99.90
5023;DHT22;2530;47.990;7.866;2022-08-21T05:16:40;14.80;99.90
5023;DHT22;2530;47.990;7.866;2022-08-21T05:19:07;14.90;99.90
5023;DHT22;2530;47.990;7.866;2022-08-21T05:21:34;14.90;99.90
5023;DHT22;2530;47.990;7.866;2022-08-21T05:24:00;15.00;99.90
5023;DHT22;2530;47.990;7.866;2022-08-21T05:26:26;15.00;99.90
5023;DHT22;2530;47.990;7.866;2022-08-21T05:28:51;15.10;99.90
5023;DHT22;2530;47.990;7.866;2022-08-21T05:31:17;15.10;99.90
5023;DHT22;2530;47.990;7.866;2022-08-21T05:33:43;15.30;99.90
5023;DHT22;2530;47.990;7.866;2022-08-21T05:36:08;15.30;99.90
5023;DHT22;2530;47.990;7.866;2022-08-21T05:38:34;15.20;99.90
5023;DHT22;2530;47.990;7.866;2022-08-21T05:40:59;15.30;99.90
5023;DHT22;2530;47.990;7.866;2022-08-21T05:43:25;15.30;99.90
5023;DHT22;2530;47.990;7.866;2022-08-21T05:45:50;15.30;99.90
5023;DHT22;2530;47.990;7.866;2022-08-21T05:48:22;15.40;99.90
5023;DHT22;2530;47.990;7.866;2022-08-21T05:50:48;15.50;99.90
5023;DHT22;2530;47.990;7.866;2022-08-21T05:53:16;15.50;99.90
5023;DHT22;2530;47.990;7.866;2022-08-21T05:55:42;15.60;99.90
5023;DHT22;2530;47.990;7.866;2022-08-21T05:58:08;15.60;99.90
5023;DHT22;2530;47.990;7.866;2022-08-21T06:00:33;15.70;99.90
5023;DHT22;2530;47.990;7.866;2022-08-21T06:02:59;15.70;99.90
5023;DHT22;2530;47.990;7.866;2022-08-21T06:05:25;15.70;99.90
5023;DHT22;2530;47.990;7.866;2022-08-21T06:07:51;15.70;99.90
5023;DHT22;2530;47.990;7.866;2022-08-21T06:10:17;15.90;99.90
5023;DHT22;2530;47.990;7.866;2022-08-21T06:12:42;16.00;99.90
5023;DHT22;2530;47.990;7.866;2022-08-21T06:15:08;16.00;99.90
5023;DHT22;2530;47.990;7.866;2022-08-21T06:17:34;16.20;99.90
5023;DHT22;2530;47.990;7.866;2022-08-21T06:20:00;16.30;99.90
5023;DHT22;2530;47.990;7.866;2022-08-21T06:22:25;16.40;99.90
5023;DHT22;2530;47.990;7.866;2022-08-21T06:24:51;16.50;99.90
5023;DHT22;2530;47.990;7.866;2022-08-21T06:27:16;16.50;99.90
5023;DHT22;2530;47.990;7.866;2022-08-21T06:29:43;16.60;99.90
5023;DHT22;2530;47.990;7.866;2022-08-21T06:32:11;16.60;99.90
5023;DHT22;2530;47.990;7.866;2022-08-21T06:34:38;16.70;99.90
5023;DHT22;2530;47.990;7.866;2022-08-21T06:37:04;16.70;99.90
5023;DHT22;2530;47.990;7.866;2022-08-21T06:39:30;16.80;99.90
5023;DHT22;2530;47.990;7.866;2022-08-21T06:41:56;16.80;99.90
5023;DHT22;2530;47.990;7.866;2022-08-21T06:44:21;16.90;99.90
5023;DHT22;2530;47.990;7.866;2022-08-21T06:46:47;16.90;99.90
5023;DHT22;2530;47.990;7.866;2022-08-21T06:49:12;16.90;99.90
5023;DHT22;2530;47.990;7.866;2022-08-21T06:51:38;17.10;99.90
5023;DHT22;2530;47.990;7.866;2022-08-21T06:54:04;17.10;99.90
5023;DHT22;2530;47.990;7.866;2022-08-21T06:56:29;17.10;99.90
5023;DHT22;2530;47.990;7.866;2022-08-21T06:58:55;17.20;99.90
5023;DHT22;2530;47.990;7.866;2022-08-21T07:01:24;17.20;99.90
5023;DHT22;2530;47.990;7.866;2022-08-21T07:03:50;17.30;99.90
5023;DHT22;2530;47.990;7.866;2022-08-21T07:06:15;17.40;99.90
5023;DHT22;2530;47.990;7.866;2022-08-21T07:08:41;17.50;99.90
5023;DHT22;2530;47.990;7.866;2022-08-21T07:11:14;17.60;99.90
5023;DHT22;2530;47.990;7.866;2022-08-21T07:13:42;17.80;99.90
5023;DHT22;2530;47.990;7.866;2022-08-21T07:16:08;18.00;99.90
5023;DHT22;2530;47.990;7.866;2022-08-21T07:18:33;18.20;99.90
5023;DHT22;2530;47.990;7.866;2022-08-21T07:21:01;18.30;99.90
5023;DHT22;2530;47.990;7.866;2022-08-21T07:23:34;18.50;99.90
5023;DHT22;2530;47.990;7.866;2022-08-21T07:26:00;18.70;99.90
5023;DHT22;2530;47.990;7.866;2022-08-21T07:28:26;18.80;99.90
5023;DHT22;2530;47.990;7.866;2022-08-21T07:30:54;18.80;99.90
5023;DHT22;2530;47.990;7.866;2022-08-21T07:33:20;18.90;99.90
5023;DHT22;2530;47.990;7.866;2022-08-21T07:35:45;19.00;99.90
5023;DHT22;2530;47.990;7.866;2022-08-21T07:38:11;19.10;99.90
5023;DHT22;2530;47.990;7.866;2022-08-21T07:40:37;19.00;99.90
5023;DHT22;2530;47.990;7.866;2022-08-21T07:43:02;19.10;99.90
5023;DHT22;2530;47.990;7.866;2022-08-21T07:45:28;19.10;99.90
5023;DHT22;2530;47.990;7.866;2022-08-21T07:47:54;19.20;99.90
5023;DHT22;2530;47.990;7.866;2022-08-21T07:50:19;19.10;99.90
5023;DHT22;2530;47.990;7.866;2022-08-21T07:52:45;19.20;99.90
5023;DHT22;2530;47.990;7.866;2022-08-21T07:55:14;19.10;99.90
5023;DHT22;2530;47.990;7.866;2022-08-21T07:57:40;19.00;99.90
5023;DHT22;2530;47.990;7.866;2022-08-21T08:00:12;18.80;99.90
5023;DHT22;2530;47.990;7.866;2022-08-21T08:02:38;18.90;99.90
5023;DHT22;2530;47.990;7.866;2022-08-21T08:05:06;19.10;99.90
5023;DHT22;2530;47.990;7.866;2022-08-21T08:07:32;19.10;99.90
5023;DHT22;2530;47.990;7.866;2022-08-21T08:09:58;19.20;99.90
5023;DHT22;2530;47.990;7.866;2022-08-21T08:12:24;19.20;99.90
5023;DHT22;2530;47.990;7.866;2022-08-21T08:14:56;19.20;99.90
5023;DHT22;2530;47.990;7.866;2022-08-21T08:17:22;19.30;99.90
5023;DHT22;2530;47.990;7.866;2022-08-21T08:19:48;19.40;99.90
5023;DHT22;2530;47.990;7.866;2022-08-21T08:22:16;19.40;99.90
5023;DHT22;2530;47.990;7.866;2022-08-21T08:24:45;19.60;99.90
5023;DHT22;2530;47.990;7.866;2022-08-21T08:27:10;19.70;99.90
5023;DHT22;2530;47.990;7.866;2022-08-21T08:29:36;19.70;99.90
5023;DHT22;2530;47.990;7.866;2022-08-21T08:32:02;19.80;99.90
5023;DHT22;2530;47.990;7.866;2022-08-21T08:34:28;19.90;99.90
5023;DHT22;2530;47.990;7.866;2022-08-21T08:36:53;19.90;99.90
5023;DHT22;2530;47.990;7.866;2022-08-21T08:39:19;20.10;99.90
5023;DHT22;2530;47.990;7.866;2022-08-21T08:41:47;20.10;99.90
5023;DHT22;2530;47.990;7.866;2022-08-21T08:44:16;20.20;99.90
5023;DHT22;2530;47.990;7.866;2022-08-21T08:46:44;20.30;99.90
5023;DHT22;2530;47.990;7.866;2022-08-21T08:49:23;20.30;99.90
5023;DHT22;2530;47.990;7.866;2022-08-21T08:54:32;20.20;99.90
5023;DHT22;2530;47.990;7.866;2022-08-21T08:57:03;20.30;99.90
5023;DHT22;2530;47.990;7.866;2022-08-21T08:59:40;20.50;99.90
5023;DHT22;2530;47.990;7.866;2022-08-21T09:02:06;20.50;99.90
5023;DHT22;2530;47.990;7.866;2022-08-21T09:04:34;20.40;99.90
5023;DHT22;2530;47.990;7.866;2022-08-21T09:09:44;20.70;99.90
5023;DHT22;2530;47.990;7.866;2022-08-21T09:12:48;20.80;99.90
5023;DHT22;2530;47.990;7.866;2022-08-21T09:17:59;20.90;99.90
5023;DHT22;2530;47.990;7.866;2022-08-21T09:26:17;21.10;99.90
5023;DHT22;2530;47.990;7.866;2022-08-21T09:28:43;21.10;99.90
5023;DHT22;2530;47.990;7.866;2022-08-21T09:31:16;21.20;99.90
5023;DHT22;2530;47.990;7.866;2022-08-21T09:33:46;21.50;99.90
5023;DHT22;2530;47.990;7.866;2022-08-21T09:36:11;21.60;99.90
5023;DHT22;2530;47.990;7.866;2022-08-21T09:38:37;21.60;99.90
5023;DHT22;2530;47.990;7.866;2022-08-21T09:41:04;21.70;99.90
5023;DHT22;2530;47.990;7.866;2022-08-21T09:43:31;21.70;99.90
5023;DHT22;2530;47.990;7.866;2022-08-21T09:48:43;21.80;99.90
5023;DHT22;2530;47.990;7.866;2022-08-21T09:51:14;21.80;99.90
5023;DHT22;2530;47.990;7.866;2022-08-21T09:53:44;21.80;99.90
5023;DHT22;2530;47.990;7.866;2022-08-21T09:56:21;22.00;99.90
5023;DHT22;2530;47.990;7.866;2022-08-21T09:59:26;22.10;99.90
5023;DHT22;2530;47.990;7.866;2022-08-21T10:01:53;22.20;99.90
5023;DHT22;2530;47.990;7.866;2022-08-21T10:04:23;22.10;99.90
5023;DHT22;2530;47.990;7.866;2022-08-21T10:06:49;22.00;99.90
5023;DHT22;2530;47.990;7.866;2022-08-21T10:09:20;22.20;99.90
5023;DHT22;2530;47.990;7.866;2022-08-21T10:12:18;22.30;99.90
5023;DHT22;2530;47.990;7.866;2022-08-21T10:15:17;22.40;99.90
5023;DHT22;2530;47.990;7.866;2022-08-21T10:20:47;22.80;99.10
5023;DHT22;2530;47.990;7.866;2022-08-21T10:40:21;23.30;94.50
5023;DHT22;2530;47.990;7.866;2022-08-21T10:45:59;23.50;92.50
5023;DHT22;2530;47.990;7.866;2022-08-21T10:48:35;23.60;93.60
5023;DHT22;2530;47.990;7.866;2022-08-21T10:51:24;23.60;93.90
5023;DHT22;2530;47.990;7.866;2022-08-21T10:56:32;23.80;94.70
5023;DHT22;2530;47.990;7.866;2022-08-21T11:10:18;23.80;93.80
5023;DHT22;2530;47.990;7.866;2022-08-21T11:12:59;24.10;93.40
5023;DHT22;2530;47.990;7.866;2022-08-21T11:18:51;24.30;91.30
5023;DHT22;2530;47.990;7.866;2022-08-21T11:24:12;24.70;91.10
5023;DHT22;2530;47.990;7.866;2022-08-21T11:26:46;24.60;89.90
5023;DHT22;2530;47.990;7.866;2022-08-21T11:50:50;26.20;78.30
5023;DHT22;2530;47.990;7.866;2022-08-21T11:53:19;25.70;81.90
5023;DHT22;2530;47.990;7.866;2022-08-21T11:56:02;26.60;78.60
5023;DHT22;2530;47.990;7.866;2022-08-21T11:58:44;26.90;77.70
5023;DHT22;2530;47.990;7.866;2022-08-21T12:01:15;27.20;73.70
5023;DHT22;2530;47.990;7.866;2022-08-21T12:03:53;27.90;73.60
5023;DHT22;2530;47.990;7.866;2022-08-21T12:06:32;27.80;67.70
5023;DHT22;2530;47.990;7.866;2022-08-21T12:09:08;27.00;70.10
5023;DHT22;2530;47.990;7.866;2022-08-21T12:11:46;26.10;73.70
5023;DHT22;2530;47.990;7.866;2022-08-21T12:14:18;25.90;76.90
5023;DHT22;2530;47.990;7.866;2022-08-21T12:16:46;26.30;74.90
5023;DHT22;2530;47.990;7.866;2022-08-21T12:26:57;27.60;75.30
5023;DHT22;2530;47.990;7.866;2022-08-21T12:29:32;27.80;70.30
5023;DHT22;2530;47.990;7.866;2022-08-21T12:32:04;26.80;71.50
5023;DHT22;2530;47.990;7.866;2022-08-21T12:35:02;27.40;71.50
5023;DHT22;2530;47.990;7.866;2022-08-21T12:40:00;28.20;68.10
5023;DHT22;2530;47.990;7.866;2022-08-21T12:42:39;26.90;66.20
5023;DHT22;2530;47.990;7.866;2022-08-21T12:45:19;27.60;68.80
5023;DHT22;2530;47.990;7.866;2022-08-21T12:50:20;28.10;66.60
5023;DHT22;2530;47.990;7.866;2022-08-21T12:53:15;28.20;64.10
5023;DHT22;2530;47.990;7.866;2022-08-21T12:55:43;27.90;63.30
5023;DHT22;2530;47.990;7.866;2022-08-21T12:58:23;28.20;64.40
5023;DHT22;2530;47.990;7.866;2022-08-21T13:01:24;28.40;63.80
5023;DHT22;2530;47.990;7.866;2022-08-21T13:03:53;27.70;65.10
5023;DHT22;2530;47.990;7.866;2022-08-21T13:06:21;28.30;65.50
5023;DHT22;2530;47.990;7.866;2022-08-21T13:08:51;27.40;64.10
5023;DHT22;2530;47.990;7.866;2022-08-21T13:11:21;28.30;65.90
5023;DHT22;2530;47.990;7.866;2022-08-21T13:13:51;28.40;66.10
5023;DHT22;2530;47.990;7.866;2022-08-21T13:16:22;28.00;66.90
5023;DHT22;2530;47.990;7.866;2022-08-21T13:19:04;28.50;65.20
5023;DHT22;2530;47.990;7.866;2022-08-21T13:21:39;28.20;63.10
5023;DHT22;2530;47.990;7.866;2022-08-21T13:24:29;28.10;64.40
5023;DHT22;2530;47.990;7.866;2022-08-21T13:26:55;27.90;65.10
5023;DHT22;2530;47.990;7.866;2022-08-21T13:29:27;27.90;65.50
5023;DHT22;2530;47.990;7.866;2022-08-21T13:31:56;27.50;67.90
5023;DHT22;2530;47.990;7.866;2022-08-21T13:34:26;27.70;67.30
5023;DHT22;2530;47.990;7.866;2022-08-21T13:37:00;28.20;66.60
5023;DHT22;2530;47.990;7.866;2022-08-21T13:39:27;27.70;62.90
5023;DHT22;2530;47.990;7.866;2022-08-21T13:41:55;27.90;66.30
5023;DHT22;2530;47.990;7.866;2022-08-21T13:44:24;27.90;68.70
5023;DHT22;2530;47.990;7.866;2022-08-21T13:46:57;28.00;65.20
5023;DHT22;2530;47.990;7.866;2022-08-21T13:49:33;28.10;66.90
5023;DHT22;2530;47.990;7.866;2022-08-21T13:52:00;28.00;66.90
5023;DHT22;2530;47.990;7.866;2022-08-21T13:54:38;28.10;66.90
5023;DHT22;2530;47.990;7.866;2022-08-21T13:57:04;28.00;67.70
5023;DHT22;2530;47.990;7.866;2022-08-21T13:59:35;27.90;64.20
5023;DHT22;2530;47.990;7.866;2022-08-21T14:02:15;27.60;63.80
5023;DHT22;2530;47.990;7.866;2022-08-21T14:04:51;28.00;65.20
5023;DHT22;2530;47.990;7.866;2022-08-21T14:07:24;27.90;65.10
5023;DHT22;2530;47.990;7.866;2022-08-21T14:09:51;28.00;63.80
5023;DHT22;2530;47.990;7.866;2022-08-21T14:12:29;27.90;66.10
5023;DHT22;2530;47.990;7.866;2022-08-21T14:14:56;28.10;65.50
5023;DHT22;2530;47.990;7.866;2022-08-21T14:17:32;28.00;64.40
5023;DHT22;2530;47.990;7.866;2022-08-21T14:19:58;28.00;65.70
5023;DHT22;2530;47.990;7.866;2022-08-21T14:22:36;28.00;67.20
5023;DHT22;2530;47.990;7.866;2022-08-21T14:27:44;27.40;68.60
5023;DHT22;2530;47.990;7.866;2022-08-21T14:30:26;27.80;64.10
5023;DHT22;2530;47.990;7.866;2022-08-21T14:32:53;28.00;65.50
5023;DHT22;2530;47.990;7.866;2022-08-21T14:35:19;28.00;63.00
5023;DHT22;2530;47.990;7.866;2022-08-21T14:37:47;28.00;62.50
5023;DHT22;2530;47.990;7.866;2022-08-21T14:40:16;27.70;65.10
5023;DHT22;2530;47.990;7.866;2022-08-21T14:42:43;27.90;64.10
5023;DHT22;2530;47.990;7.866;2022-08-21T14:45:25;28.20;63.60
5023;DHT22;2530;47.990;7.866;2022-08-21T14:47:51;28.20;63.30
5023;DHT22;2530;47.990;7.866;2022-08-21T14:50:17;28.10;61.60
5023;DHT22;2530;47.990;7.866;2022-08-21T14:52:42;28.30;63.40
5023;DHT22;2530;47.990;7.866;2022-08-21T14:55:11;28.20;61.80
5023;DHT22;2530;47.990;7.866;2022-08-21T14:57:40;28.40;61.40
5023;DHT22;2530;47.990;7.866;2022-08-21T15:00:08;28.50;61.00
5023;DHT22;2530;47.990;7.866;2022-08-21T15:02:34;28.30;61.30
5023;DHT22;2530;47.990;7.866;2022-08-21T15:05:00;28.50;60.70
5023;DHT22;2530;47.990;7.866;2022-08-21T15:07:25;28.20;61.00
5023;DHT22;2530;47.990;7.866;2022-08-21T15:09:51;28.00;64.20
5023;DHT22;2530;47.990;7.866;2022-08-21T15:12:16;27.90;62.40
5023;DHT22;2530;47.990;7.866;2022-08-21T15:14:42;28.50;66.60
5023;DHT22;2530;47.990;7.866;2022-08-21T15:17:09;28.70;64.30
5023;DHT22;2530;47.990;7.866;2022-08-21T15:19:36;28.60;63.50
5023;DHT22;2530;47.990;7.866;2022-08-21T15:22:02;28.60;64.90
5023;DHT22;2530;47.990;7.866;2022-08-21T15:24:28;28.70;67.90
5023;DHT22;2530;47.990;7.866;2022-08-21T15:26:54;28.50;64.10
5023;DHT22;2530;47.990;7.866;2022-08-21T15:29:20;28.10;64.00
5023;DHT22;2530;47.990;7.866;2022-08-21T15:32:00;28.40;64.10
5023;DHT22;2530;47.990;7.866;2022-08-21T15:34:29;28.70;62.70
5023;DHT22;2530;47.990;7.866;2022-08-21T15:36:56;28.80;60.80
5023;DHT22;2530;47.990;7.866;2022-08-21T15:39:23;28.20;63.80
5023;DHT22;2530;47.990;7.866;2022-08-21T15:41:49;28.40;64.80
5023;DHT22;2530;47.990;7.866;2022-08-21T15:44:15;28.80;61.50
5023;DHT22;2530;47.990;7.866;2022-08-21T15:46:41;28.80;64.00
5023;DHT22;2530;47.990;7.866;2022-08-21T15:49:07;28.20;61.90
5023;DHT22;2530;47.990;7.866;2022-08-21T15:51:33;28.40;62.10
5023;DHT22;2530;47.990;7.866;2022-08-21T15:53:59;28.80;60.20
5023;DHT22;2530;47.990;7.866;2022-08-21T15:56:28;28.60;59.50
5023;DHT22;2530;47.990;7.866;2022-08-21T15:59:07;28.70;59.50
5023;DHT22;2530;47.990;7.866;2022-08-21T16:01:34;28.60;60.20
5023;DHT22;2530;47.990;7.866;2022-08-21T16:04:01;28.50;60.20
5023;DHT22;2530;47.990;7.866;2022-08-21T16:06:27;28.30;63.50
5023;DHT22;2530;47.990;7.866;2022-08-21T16:08:52;28.30;67.00
5023;DHT22;2530;47.990;7.866;2022-08-21T16:11:18;28.30;62.70
5023;DHT22;2530;47.990;7.866;2022-08-21T16:13:45;28.30;60.30
5023;DHT22;2530;47.990;7.866;2022-08-21T16:16:13;28.20;65.10
5023;DHT22;2530;47.990;7.866;2022-08-21T16:18:40;27.90;66.90
5023;DHT22;2530;47.990;7.866;2022-08-21T16:21:06;27.90;70.10
5023;DHT22;2530;47.990;7.866;2022-08-21T16:23:32;27.90;69.00
5023;DHT22;2530;47.990;7.866;2022-08-21T16:26:00;27.90;67.60
5023;DHT22;2530;47.990;7.866;2022-08-21T16:28:25;28.00;67.00
5023;DHT22;2530;47.990;7.866;2022-08-21T16:30:51;28.50;66.30
5023;DHT22;2530;47.990;7.866;2022-08-21T16:33:34;28.50;66.70
5023;DHT22;2530;47.990;7.866;2022-08-21T16:36:00;28.20;66.30
5023;DHT22;2530;47.990;7.866;2022-08-21T16:38:28;27.70;65.30
5023;DHT22;2530;47.990;7.866;2022-08-21T16:40:54;27.50;65.20
5023;DHT22;2530;47.990;7.866;2022-08-21T16:43:24;27.60;68.80
5023;DHT22;2530;47.990;7.866;2022-08-21T16:45:51;27.80;68.30
5023;DHT22;2530;47.990;7.866;2022-08-21T16:48:17;27.90;68.60
5023;DHT22;2530;47.990;7.866;2022-08-21T16:50:43;27.90;67.00
5023;DHT22;2530;47.990;7.866;2022-08-21T16:53:09;27.70;65.00
5023;DHT22;2530;47.990;7.866;2022-08-21T16:55:35;27.50;66.50
5023;DHT22;2530;47.990;7.866;2022-08-21T16:58:08;27.80;68.80
5023;DHT22;2530;47.990;7.866;2022-08-21T17:00:34;27.70;63.50
5023;DHT22;2530;47.990;7.866;2022-08-21T17:02:59;27.40;68.40
5023;DHT22;2530;47.990;7.866;2022-08-21T17:05:25;26.70;68.50
5023;DHT22;2530;47.990;7.866;2022-08-21T17:07:51;26.60;73.00
5023;DHT22;2530;47.990;7.866;2022-08-21T17:10:16;26.50;78.30
5023;DHT22;2530;47.990;7.866;2022-08-21T17:12:48;26.30;74.80
5023;DHT22;2530;47.990;7.866;2022-08-21T17:15:21;26.60;67.30
5023;DHT22;2530;47.990;7.866;2022-08-21T17:17:48;26.60;65.90
5023;DHT22;2530;47.990;7.866;2022-08-21T17:20:14;26.40;68.10
5023;DHT22;2530;47.990;7.866;2022-08-21T17:22:40;26.30;68.60
5023;DHT22;2530;47.990;7.866;2022-08-21T17:25:06;26.20;65.70
5023;DHT22;2530;47.990;7.866;2022-08-21T17:27:31;26.30;65.40
5023;DHT22;2530;47.990;7.866;2022-08-21T17:29:57;26.20;65.90
5023;DHT22;2530;47.990;7.866;2022-08-21T17:32:23;25.90;78.00
5023;DHT22;2530;47.990;7.866;2022-08-21T17:34:49;25.50;82.70
5023;DHT22;2530;47.990;7.866;2022-08-21T17:37:15;25.40;81.20
5023;DHT22;2530;47.990;7.866;2022-08-21T17:39:41;25.30;88.40
5023;DHT22;2530;47.990;7.866;2022-08-21T17:42:10;25.30;84.80
5023;DHT22;2530;47.990;7.866;2022-08-21T17:44:38;25.20;90.00
5023;DHT22;2530;47.990;7.866;2022-08-21T17:47:06;25.20;91.10